Flight Track Log - Related Links

Times and Time Zones

All times are in EDT time to prevent confusion due to time zone crossing. See the AWE1600 flight status page for this flight to view local times or setup timezone preferences in your user account.

Time Position Orientation Groundspeed Altitude Reporting Facility
EDT Latitude Longitude Course Direction KTS MPH feet Rate Location/Type
Wed 09:23:50 AM 39.8667 -75.2833 270° West 163 188 700  Level Philadelphia TRACON
Wed 09:24:50 AM 39.8500 -75.3500 252° West 218 251 2,200 2,484 Climbing Philadelphia TRACON
Wed 09:26:00 AM 39.9000 -75.5752 270° West  Level FlightAware Approximate
Wed 09:26:56 AM 39.8425 -75.5267 267° West 288 331 8,400  Level New York Center
Wed 09:27:00 AM 39.9129 -75.6895 258° West  Level FlightAware Approximate
Wed 09:27:56 AM 39.8508 -75.6300 276° West 288 331 10,700  Level New York Center
Wed 09:28:00 AM 39.9000 -75.8060 270° West  Level FlightAware Approximate
Wed 09:28:54 AM 39.8606 -75.7469 276° West 311 358 12,500  Level New York Center
Wed 09:29:00 AM 39.9000 -75.9243 270° West  Level FlightAware Approximate
Wed 09:29:54 AM 39.8719 -75.8722 277° West 346 398 14,600  Level New York Center
Wed 09:30:55 AM 39.8814 -75.9864 276° West 352 405 16,900 2,050 Climbing New York Center
Wed 09:31:54 AM 39.8900 -76.1197 275° West 364 419 18,700 1,815 Climbing New York Center
Wed 09:32:54 AM 39.9003 -76.2614 275° West 383 441 20,500 1,721 Climbing New York Center
Wed 09:33:56 AM 39.9081 -76.4028 274° West 396 456 22,200 1,623 Climbing New York Center
Wed 09:34:56 AM 39.9178 -76.5469 275° West 401 461 23,800 1,576 Climbing New York Center
Wed 09:35:54 AM 39.9272 -76.6967 275° West 411 473 25,300 1,400 Climbing New York Center
Wed 09:36:56 AM 39.9383 -76.8439 276° West 411 473 26,600 1,300 Climbing New York Center
Wed 09:37:54 AM 39.9428 -76.9986 272° West 417 480 27,900 1,361 Climbing New York Center
Wed 09:38:55 AM 39.9444 -77.1614 271° West 433 498 29,300 1,579 Climbing New York Center
Wed 09:41:04 AM 39.9225 -77.4753 265° West 420 483 32,900 1,587 Climbing Cleveland Center
Wed 09:42:04 AM 39.9264 -77.6158 272° West 405 466 34,300 1,200 Climbing Cleveland Center
Wed 09:43:04 AM 39.9467 -77.7558 281° West 399 459 35,300 1,050 Climbing Cleveland Center
Wed 09:44:04 AM 39.9664 -77.8906 281° West 399 459 36,400 850 Climbing Cleveland Center
Wed 09:45:04 AM 39.9886 -78.0306 282° West 394 453 37,000 300 Climbing Cleveland Center
Wed 09:46:04 AM 40.0061 -78.1628 280° West 389 448 37,000 350 Level Cleveland Center
Wed 09:47:04 AM 40.0236 -78.3031 279° West 389 448 37,700 500 Climbing Cleveland Center
Wed 09:48:04 AM 40.0428 -78.4433 280° West 389 448 38,000 150 Climbing Cleveland Center
Wed 09:49:04 AM 40.0622 -78.5867 280° West 394 453 38,000  Level Cleveland Center
Wed 09:50:04 AM 40.0833 -78.7325 281° West 404 465 38,000  Level Cleveland Center
Wed 09:51:04 AM 40.1044 -78.8783 281° West 414 476 38,000  Level Cleveland Center
Wed 09:52:04 AM 40.1400 -79.0242 288° West 414 476 38,000  Level Cleveland Center
Wed 09:53:04 AM 40.1856 -79.1617 293° West 414 476 38,000  Level Cleveland Center
Wed 09:54:04 AM 40.2372 -79.3158 294° West 424 488 38,000  Level Cleveland Center
Wed 09:55:04 AM 40.2806 -79.4564 292° West 424 488 38,000  Level Cleveland Center
Wed 09:56:04 AM 40.3256 -79.5972 293° West 424 488 38,000 -1,050 Level Cleveland Center
Wed 09:57:04 AM 40.3683 -79.7411 291° West 424 488 35,900 -2,200 Descending Cleveland Center
Wed 09:58:04 AM 40.4131 -79.8822 293° West 424 488 33,600 -2,200 Descending Cleveland Center
Wed 09:59:04 AM 40.4514 -80.0183 290° West 434 499 31,500 -1,800 Descending Cleveland Center
Wed 10:00:04 AM 40.5022 -80.1817 292° West 439 505 30,000 -750 Descending Cleveland Center
Wed 10:01:04 AM 40.5464 -80.3289 292° West 439 505 30,000  Level Cleveland Center
Wed 10:02:04 AM 40.5903 -80.4572 294° West 434 499 30,000  Level Cleveland Center
Wed 10:03:04 AM 40.6322 -80.6078 290° West 436 502 30,000  Level Cleveland Center
Wed 10:04:04 AM 40.6800 -80.7475 294° West 436 502 30,000  Level Cleveland Center
Wed 10:05:04 AM 40.7442 -80.8844 302° West 431 496 30,000  Level Cleveland Center
Wed 10:06:04 AM 40.8106 -81.0192 303° West 436 502 30,000  Level Cleveland Center
Wed 10:07:04 AM 40.8808 -81.1708 302° West 441 507 30,000  Level Cleveland Center
Wed 10:08:04 AM 40.9467 -81.3033 303° West 441 507 30,000 -50 Level Cleveland Center
Wed 10:09:04 AM 41.0125 -81.4389 303° West 436 502 29,900 -1,200 Descending Cleveland Center
Wed 10:10:04 AM 41.0739 -81.5719 301° West 430 495 27,600 -2,200 Descending Cleveland Center
Wed 10:11:04 AM 41.1333 -81.6858 305° West 430 495 25,500 -1,800 Descending Cleveland Center
Wed 10:12:04 AM 41.1944 -81.8111 303° West 425 489 24,000 -750 Descending Cleveland Center
Wed 10:13:04 AM 41.2556 -81.9392 302° West 420 483 24,000  Level Cleveland Center
Wed 10:14:04 AM 41.3167 -82.0650 303° West 415 478 24,000 -800 Level Cleveland Center
Wed 10:15:04 AM 41.3814 -82.2047 302° West 415 478 22,400 -1,850 Descending Cleveland Center
Wed 10:16:04 AM 41.4506 -82.3200 309° West 404 465 20,300 -2,100 Descending Cleveland Center
Wed 10:17:04 AM 41.5156 -82.4300 308° West 388 447 18,200 -1,982 Descending Cleveland Center
Wed 10:17:56 AM 41.5683 -82.5203 308° West 365 420 16,600 -1,900 Descending Cleveland Center
Wed 10:19:04 AM 41.6433 -82.6394 310° West 369 425 14,400 -1,875 Descending Cleveland Center
Wed 10:20:04 AM 41.7000 -82.7411 307° West 364 419 12,600 -1,200 Descending Cleveland Center
Wed 10:21:04 AM 41.7689 -82.8356 314° West 353 406 12,000 -300 Descending Cleveland Center
Wed 10:22:04 AM 41.8403 -82.9217 318° Northwest 341 392 12,000  Level Cleveland Center
Wed 10:23:04 AM 41.9114 -83.0078 318° Northwest 341 392 12,000  Level Cleveland Center
Wed 10:24:04 AM 41.9844 -83.0944 319° Northwest 347 399 12,000  Level Cleveland Center
Wed 10:25:04 AM 42.0517 -83.1725 319° Northwest 342 394 12,000 -50 Level Cleveland Center
Wed 10:26:04 AM 42.1006 -83.2250 321° Northwest 290 334 11,900 -700 Descending Cleveland Center
Wed 10:27:04 AM 42.1772 -83.2394 352° North 238 274 10,600 -1,658 Descending Cleveland Center
Wed 10:28:36 AM 42.2789 -83.1764 25° Northeast 249 287 7,700 -1,957 Descending Cleveland Center
Wed 10:29:25 AM 42.3297 -83.1392 28° Northeast 245 282 6,000 -1,838 Descending Cleveland Center
Wed 10:30:27 AM 42.3792 -83.1636 340° North 215 247 4,300 -1,033 Descending Cleveland Center
Wed 10:31:27 AM 42.3694 -83.2250 258° West 181 208 3,900 -639 Descending Cleveland Center
Wed 10:32:29 AM 42.3228 -83.2594 209° Southwest 179 206 3,000 -878 Descending Cleveland Center
Wed 10:33:30 AM 42.2825 -83.2886 208° Southwest 134 154 2,100 -750 Descending Cleveland Center
Wed 10:34:37 AM 42.2483 -83.3153 210° Southwest 130 150 1,400 -627 Descending Cleveland Center

Login

Don't have an account? Register now (free) for customized features, flight alerts, and more!